createdAt,value
2023-03-19T00:03:04.099Z,6.50
2023-03-19T00:06:17.941Z,7.80
2023-03-19T00:09:34.980Z,5.87
2023-03-19T00:12:47.974Z,7.15
2023-03-19T00:15:53.069Z,7.05
2023-03-19T00:19:06.046Z,6.70
2023-03-19T00:22:21.153Z,5.27
2023-03-19T00:25:45.029Z,6.20
2023-03-19T00:28:57.058Z,7.00
2023-03-19T00:32:10.044Z,7.00
2023-03-19T00:35:10.115Z,7.87
2023-03-19T00:38:23.059Z,6.70
2023-03-19T00:41:49.196Z,5.40
2023-03-19T00:45:01.161Z,5.73
2023-03-19T00:48:13.118Z,7.07
2023-03-19T00:51:25.181Z,7.70
2023-03-19T00:54:37.211Z,6.77
2023-03-19T00:58:03.109Z,8.30
2023-03-19T01:01:17.232Z,6.80
2023-03-19T01:04:29.241Z,8.77
2023-03-19T01:07:41.273Z,6.80
2023-03-19T01:11:09.205Z,6.90
2023-03-19T01:14:23.221Z,8.80
2023-03-19T01:17:41.236Z,9.40
2023-03-19T01:20:41.206Z,8.60
2023-03-19T01:23:53.281Z,7.80
2023-03-19T01:27:05.214Z,8.17
2023-03-19T01:30:35.485Z,7.75
2023-03-19T01:34:05.309Z,7.60
2023-03-19T01:37:19.357Z,8.90
2023-03-19T01:40:31.385Z,6.60
2023-03-19T01:43:55.229Z,8.65
2023-03-19T01:47:21.344Z,8.33
2023-03-19T01:50:49.320Z,8.15
2023-03-19T01:54:19.348Z,7.70
2023-03-19T01:57:44.425Z,7.40
2023-03-19T02:01:02.333Z,6.93
2023-03-19T02:04:35.400Z,8.15
2023-03-19T02:07:59.346Z,7.55
2023-03-19T02:11:23.358Z,7.30
2023-03-19T02:14:35.423Z,7.45
2023-03-19T02:17:59.349Z,6.43
2023-03-19T02:21:24.373Z,6.75
2023-03-19T02:24:49.461Z,6.70
2023-03-19T02:28:16.443Z,6.67
2023-03-19T02:31:41.434Z,6.90
2023-03-19T02:34:53.959Z,5.70
2023-03-19T02:38:15.611Z,5.25
2023-03-19T02:41:27.429Z,6.05
2023-03-19T02:44:54.466Z,5.80
2023-03-19T02:48:07.503Z,4.90
2023-03-19T02:51:20.628Z,6.17
2023-03-19T02:54:20.741Z,6.23
2023-03-19T02:57:34.544Z,4.65
2023-03-19T03:01:06.633Z,6.30
2023-03-19T03:04:31.566Z,5.65
2023-03-19T03:07:31.540Z,4.53
2023-03-19T03:10:56.505Z,6.15
2023-03-19T03:13:56.555Z,5.27
2023-03-19T03:17:22.609Z,3.70
2023-03-19T03:20:23.562Z,5.27
2023-03-19T03:23:47.616Z,4.90
2023-03-19T03:27:03.571Z,5.73
2023-03-19T03:30:18.842Z,4.87
2023-03-19T03:33:32.678Z,5.17
2023-03-19T03:36:45.705Z,4.50
2023-03-19T03:39:57.605Z,4.57
2023-03-19T03:43:09.733Z,2.95
2023-03-19T03:46:21.720Z,4.73
2023-03-19T03:49:48.786Z,4.10
2023-03-19T03:53:00.714Z,4.30
2023-03-19T03:56:28.699Z,4.67
2023-03-19T03:59:40.732Z,2.80
2023-03-19T04:02:54.785Z,4.40
2023-03-19T04:06:21.744Z,2.90
2023-03-19T04:09:46.731Z,3.27
2023-03-19T04:12:58.727Z,4.35
2023-03-19T04:16:10.816Z,2.93
2023-03-19T04:19:34.806Z,2.77
2023-03-19T04:23:00.839Z,4.47
2023-03-19T04:26:25.835Z,3.83
2023-03-19T04:29:25.798Z,3.50
2023-03-19T04:32:38.873Z,3.80
2023-03-19T04:35:50.928Z,2.90
2023-03-19T04:39:16.778Z,2.57
2023-03-19T04:42:28.882Z,3.23
2023-03-19T04:45:41.788Z,3.60
2023-03-19T04:49:06.918Z,2.80
2023-03-19T04:52:18.946Z,3.47
2023-03-19T04:55:44.868Z,3.30
2023-03-19T04:59:02.940Z,3.47
2023-03-19T05:02:14.970Z,3.00
2023-03-19T05:05:27.912Z,2.90
2023-03-19T05:08:50.968Z,2.85
2023-03-19T05:12:17.977Z,3.20
2023-03-19T05:15:30.972Z,2.90
2023-03-19T05:18:43.992Z,2.70
2023-03-19T05:21:56.935Z,3.73
2023-03-19T05:25:08.967Z,2.80
2023-03-19T05:28:34.952Z,2.47
2023-03-19T05:31:47.956Z,3.20
2023-03-19T05:35:00.119Z,3.20
2023-03-19T05:38:14.047Z,2.67
2023-03-19T05:41:26.068Z,2.93
2023-03-19T05:47:55.094Z,2.77
2023-03-19T05:51:09.088Z,2.50
2023-03-19T05:54:21.105Z,2.90
2023-03-19T05:57:34.059Z,2.55
2023-03-19T06:00:47.117Z,2.57
2023-03-19T06:04:13.196Z,2.73
2023-03-19T06:07:37.085Z,2.65
2023-03-19T06:10:50.084Z,2.50
2023-03-19T06:14:02.178Z,2.80
2023-03-19T06:17:18.144Z,2.40
2023-03-19T06:20:44.211Z,2.80
2023-03-19T06:23:57.212Z,2.80
2023-03-19T06:27:09.208Z,2.40
2023-03-19T06:30:22.097Z,2.75
2023-03-19T06:33:34.219Z,2.10
2023-03-19T06:40:03.287Z,2.40
2023-03-19T06:43:21.238Z,2.40
2023-03-19T06:46:33.249Z,3.07
2023-03-19T06:49:45.336Z,3.15
2023-03-19T06:52:57.284Z,2.93
2023-03-19T06:56:23.197Z,2.60
2023-03-19T06:59:35.338Z,2.53
2023-03-19T07:02:48.345Z,2.90
2023-03-19T07:05:48.303Z,2.77
2023-03-19T07:09:00.323Z,3.03
2023-03-19T07:12:14.341Z,3.10
2023-03-19T07:15:27.324Z,2.70
2023-03-19T07:18:27.379Z,3.00
2023-03-19T07:21:40.348Z,3.20
2023-03-19T07:24:40.300Z,3.10
2023-03-19T07:28:06.320Z,3.10
2023-03-19T07:31:18.403Z,2.63
2023-03-19T07:34:30.450Z,3.03
2023-03-19T07:37:42.428Z,3.55
2023-03-19T07:41:03.128Z,3.70
2023-03-19T07:44:16.499Z,3.90
2023-03-19T07:47:29.632Z,3.63
2023-03-19T07:50:29.432Z,3.20
2023-03-19T07:53:41.411Z,4.53
2023-03-19T07:56:41.512Z,5.00
2023-03-19T08:00:07.494Z,5.50
2023-03-19T08:03:19.444Z,4.20
2023-03-19T08:06:19.478Z,3.10
2023-03-19T08:09:31.475Z,3.93
2023-03-19T08:12:31.465Z,3.65
2023-03-19T08:15:55.532Z,5.40
2023-03-19T08:19:09.531Z,5.20
2023-03-19T08:22:24.536Z,5.10
2023-03-19T08:25:24.495Z,4.35
2023-03-19T08:28:48.573Z,4.87
2023-03-19T08:31:59.511Z,4.20
2023-03-19T08:35:25.588Z,4.83
2023-03-19T08:38:37.570Z,4.47
2023-03-19T08:44:42.575Z,4.70
2023-03-19T08:48:07.669Z,5.50
2023-03-19T08:51:21.573Z,5.53
2023-03-19T08:54:33.646Z,5.00
2023-03-19T08:57:45.665Z,5.70
2023-03-19T09:00:57.673Z,6.23
2023-03-19T09:03:58.648Z,5.20
2023-03-19T09:07:28.666Z,6.05
2023-03-19T09:10:28.720Z,6.25
2023-03-19T09:13:52.661Z,5.93
2023-03-19T09:16:56.709Z,6.57
2023-03-19T09:20:08.659Z,5.00
2023-03-19T09:23:22.700Z,5.65
2023-03-19T09:26:34.748Z,5.17
2023-03-19T09:29:41.825Z,5.63
2023-03-19T09:32:55.760Z,4.90
2023-03-19T09:36:03.803Z,5.33
2023-03-19T09:39:29.848Z,6.05
2023-03-19T09:42:44.888Z,6.45
2023-03-19T09:46:09.838Z,6.15
2023-03-19T09:49:21.761Z,5.80
2023-03-19T09:52:49.742Z,5.93
2023-03-19T09:56:04.851Z,5.65
2023-03-19T09:59:16.790Z,5.65
2023-03-19T10:02:31.864Z,5.55
2023-03-19T10:05:58.875Z,5.25
2023-03-19T10:09:20.865Z,5.73
2023-03-19T10:12:51.808Z,5.67
2023-03-19T10:16:03.953Z,5.40
2023-03-19T10:19:27.882Z,5.95
2023-03-19T10:22:39.917Z,5.80
2023-03-19T10:26:06.933Z,4.95
2023-03-19T10:29:21.919Z,5.00
2023-03-19T10:32:45.890Z,5.20
2023-03-19T10:36:05.052Z,5.03
2023-03-19T10:39:31.912Z,5.05
2023-03-19T10:42:45.972Z,5.10
2023-03-19T10:46:12.168Z,5.10
2023-03-19T10:49:19.977Z,4.90
2023-03-19T10:52:45.102Z,4.90
2023-03-19T10:55:57.179Z,5.40
2023-03-19T10:59:21.993Z,5.43
2023-03-19T11:02:41.033Z,4.97
2023-03-19T11:06:05.089Z,5.50
2023-03-19T11:09:17.017Z,4.73
2023-03-19T11:12:42.003Z,4.90
2023-03-19T11:15:57.092Z,4.83
2023-03-19T11:19:26.105Z,4.85
2023-03-19T11:22:39.089Z,4.80
2023-03-19T11:26:04.081Z,5.40
2023-03-19T11:29:16.100Z,5.20
2023-03-19T11:32:46.199Z,5.50
2023-03-19T11:36:05.211Z,5.13
2023-03-19T11:39:35.139Z,5.27
2023-03-19T11:42:51.174Z,5.70
2023-03-19T11:46:16.322Z,5.83
2023-03-19T11:49:38.141Z,6.43
2023-03-19T11:53:10.249Z,7.07
2023-03-19T11:56:25.220Z,5.70
2023-03-19T11:59:54.160Z,5.87
2023-03-19T12:03:16.272Z,5.20
2023-03-19T12:06:42.238Z,5.53
2023-03-19T12:09:56.259Z,5.80
2023-03-19T12:13:21.250Z,5.73
2023-03-19T12:16:35.660Z,6.07
2023-03-19T12:20:04.285Z,6.50
2023-03-19T12:23:22.363Z,5.53
2023-03-19T12:26:49.385Z,6.00
2023-03-19T12:30:02.238Z,6.20
2023-03-19T12:33:40.299Z,7.17
2023-03-19T12:36:52.323Z,6.45
2023-03-19T12:40:18.339Z,6.70
2023-03-19T12:43:32.359Z,6.10
2023-03-19T12:46:59.174Z,6.73
2023-03-19T12:50:09.352Z,6.70
2023-03-19T12:53:34.314Z,6.60
2023-03-19T12:56:49.366Z,5.97
2023-03-19T13:00:15.372Z,6.20
2023-03-19T13:03:31.457Z,6.73
2023-03-19T13:06:56.468Z,6.47
2023-03-19T13:10:08.449Z,6.30
2023-03-19T13:13:36.433Z,6.70
2023-03-19T13:16:56.463Z,6.55
2023-03-19T13:20:08.396Z,6.90
2023-03-19T13:23:21.978Z,6.47
2023-03-19T13:26:47.476Z,6.23
2023-03-19T13:29:59.529Z,6.43
2023-03-19T13:33:29.596Z,6.95
2023-03-19T13:36:44.563Z,6.10
2023-03-19T13:40:08.560Z,6.10
2023-03-19T13:43:27.904Z,6.37
2023-03-19T13:47:05.587Z,6.17
2023-03-19T13:50:28.597Z,6.65
2023-03-19T13:54:03.558Z,6.10
2023-03-19T13:57:26.533Z,6.07
2023-03-19T14:00:57.625Z,6.07
2023-03-19T14:04:22.585Z,6.03
2023-03-19T14:07:36.560Z,6.10
2023-03-19T14:11:00.563Z,6.20
2023-03-19T14:14:10.678Z,7.00
2023-03-19T14:17:38.674Z,6.27
2023-03-19T14:20:51.933Z,5.33
2023-03-19T14:24:52.238Z,5.90
2023-03-19T14:27:29.644Z,5.80
2023-03-19T14:30:54.691Z,5.75
2023-03-19T14:34:12.684Z,5.50
2023-03-19T14:37:40.694Z,5.60
2023-03-19T14:40:55.706Z,5.97
2023-03-19T14:44:25.686Z,5.67
2023-03-19T14:47:46.779Z,5.40
2023-03-19T14:51:16.785Z,5.90
2023-03-19T14:54:21.617Z,6.27
2023-03-19T14:57:33.831Z,6.57
2023-03-19T15:00:50.810Z,6.77
2023-03-19T15:04:17.734Z,6.77
2023-03-19T15:07:17.810Z,5.77
2023-03-19T15:10:41.767Z,6.10
2023-03-19T15:13:56.844Z,6.40
2023-03-19T15:17:23.834Z,6.35
2023-03-19T15:20:37.776Z,7.05
2023-03-19T15:24:02.806Z,6.60
2023-03-19T15:27:02.837Z,7.40
2023-03-19T15:30:57.463Z,7.60
2023-03-19T15:34:00.958Z,6.85
2023-03-19T15:37:25.875Z,6.97
2023-03-19T15:40:37.944Z,6.73
2023-03-19T15:44:01.933Z,7.40
2023-03-19T15:47:13.907Z,8.10
2023-03-19T15:50:39.948Z,8.35
2023-03-19T15:53:51.928Z,8.40
2023-03-19T15:57:16.953Z,8.53
2023-03-19T16:00:29.988Z,8.47
2023-03-19T16:03:57.993Z,8.90
2023-03-19T16:07:11.989Z,8.73
2023-03-19T16:10:49.977Z,9.10
2023-03-19T16:14:03.119Z,9.10
2023-03-19T16:17:37.974Z,9.10
2023-03-19T16:20:50.021Z,8.83
2023-03-19T16:24:17.026Z,8.00
2023-03-19T16:27:29.078Z,8.37
2023-03-19T16:30:41.985Z,8.77
2023-03-19T16:33:42.037Z,8.90
2023-03-19T16:37:07.051Z,8.70
2023-03-19T16:40:21.047Z,7.95
2023-03-19T16:43:45.128Z,8.17
2023-03-19T16:46:45.175Z,8.10
2023-03-19T16:50:11.111Z,7.63
2023-03-19T16:53:26.124Z,7.90
2023-03-19T16:56:52.107Z,7.53
2023-03-19T17:00:05.112Z,7.37
2023-03-19T17:03:29.120Z,8.50
2023-03-19T17:06:41.124Z,7.93
2023-03-19T17:09:54.195Z,7.83
2023-03-19T17:13:09.116Z,6.75
2023-03-19T17:16:33.222Z,7.30
2023-03-19T17:19:48.177Z,6.90
2023-03-19T17:23:04.203Z,7.50
2023-03-19T17:26:04.230Z,8.00
2023-03-19T17:29:30.258Z,8.00
2023-03-19T17:32:42.287Z,8.17
2023-03-19T17:35:54.279Z,8.10
2023-03-19T17:42:23.253Z,7.73
2023-03-19T17:45:49.324Z,8.73
2023-03-19T17:48:49.219Z,8.23
2023-03-19T17:52:13.561Z,7.97
2023-03-19T17:55:14.311Z,8.35
2023-03-19T17:58:40.300Z,8.57
2023-03-19T18:01:54.343Z,8.10
2023-03-19T18:08:07.337Z,9.17
2023-03-19T18:11:20.459Z,8.90
2023-03-19T18:14:51.496Z,8.97
2023-03-19T18:18:17.307Z,8.70
2023-03-19T18:21:18.412Z,9.03
2023-03-19T18:24:31.350Z,9.85
2023-03-19T18:27:31.357Z,8.60
2023-03-19T18:30:55.428Z,8.25
2023-03-19T18:34:09.410Z,8.93
2023-03-19T18:37:34.373Z,9.43
2023-03-19T18:40:46.427Z,8.63
2023-03-19T18:44:10.431Z,7.97
2023-03-19T18:47:10.413Z,9.70
2023-03-19T18:50:41.576Z,10.67
2023-03-19T18:53:42.548Z,8.00
2023-03-19T19:00:00.485Z,8.90
2023-03-19T19:03:25.556Z,9.00
2023-03-19T19:06:47.858Z,9.60
2023-03-19T19:09:53.596Z,10.00
2023-03-19T19:13:05.508Z,8.47
2023-03-19T19:16:18.685Z,8.87
2023-03-19T19:19:31.545Z,8.43
2023-03-19T19:22:57.563Z,11.30
2023-03-19T19:26:15.607Z,9.30
2023-03-19T19:29:41.578Z,8.77
2023-03-19T19:32:53.614Z,9.93
2023-03-19T19:36:18.623Z,10.10
2023-03-19T19:39:32.647Z,9.70
2023-03-19T19:42:44.620Z,10.75
2023-03-19T19:45:56.711Z,10.25
2023-03-19T19:49:20.699Z,9.43
2023-03-19T19:52:35.741Z,10.40
2023-03-19T19:56:02.694Z,10.10
2023-03-19T19:59:14.693Z,9.20
2023-03-19T20:02:43.700Z,9.40
2023-03-19T20:05:56.782Z,9.30
2023-03-19T20:09:08.704Z,10.25
2023-03-19T20:12:38.760Z,10.63
2023-03-19T20:15:50.779Z,9.07
2023-03-19T20:19:15.744Z,9.60
2023-03-19T20:22:15.795Z,8.93
2023-03-19T20:25:28.788Z,9.05
2023-03-19T20:28:43.782Z,9.03
2023-03-19T20:32:07.799Z,8.85
2023-03-19T20:35:07.802Z,9.10
2023-03-19T20:38:19.820Z,9.30
2023-03-19T20:41:31.826Z,8.80
2023-03-19T20:45:00.859Z,8.97
2023-03-19T20:48:12.891Z,8.80
2023-03-19T20:51:37.858Z,8.83
2023-03-19T20:54:37.855Z,8.17
2023-03-19T20:58:06.903Z,8.83
2023-03-19T21:01:21.115Z,8.43
2023-03-19T21:04:33.874Z,7.80
2023-03-19T21:07:47.984Z,7.90
2023-03-19T21:11:12.877Z,8.55
2023-03-19T21:14:13.004Z,7.00
2023-03-19T21:17:40.925Z,8.00
2023-03-19T21:20:52.987Z,7.70
2023-03-19T21:24:17.002Z,7.70
2023-03-19T21:27:16.996Z,7.30
2023-03-19T21:30:41.002Z,6.00
2023-03-19T21:33:58.568Z,6.77
2023-03-19T21:37:10.009Z,6.30
2023-03-19T21:40:10.069Z,7.43
2023-03-19T21:43:36.939Z,6.50
2023-03-19T21:46:49.058Z,7.20
2023-03-19T21:50:22.051Z,5.60
2023-03-19T21:53:34.014Z,6.45
2023-03-19T21:56:59.091Z,6.07
2023-03-19T21:59:59.113Z,5.80
2023-03-19T22:03:23.097Z,5.70
2023-03-19T22:06:43.260Z,6.17
2023-03-19T22:09:55.155Z,5.65
2023-03-19T22:13:07.113Z,5.73
2023-03-19T22:16:34.225Z,5.53
2023-03-19T22:19:46.162Z,6.07
2023-03-19T22:23:13.091Z,5.53
2023-03-19T22:26:13.166Z,5.40
2023-03-19T22:29:38.143Z,5.20
2023-03-19T22:32:38.181Z,5.60
2023-03-19T22:36:09.217Z,5.13
2023-03-19T22:39:29.180Z,5.50
2023-03-19T22:42:41.207Z,5.27
2023-03-19T22:45:53.275Z,5.05
2023-03-19T22:49:18.345Z,4.27
2023-03-19T22:52:18.277Z,5.10
2023-03-19T22:55:49.260Z,5.20
2023-03-19T22:58:49.223Z,5.00
2023-03-19T23:02:01.298Z,4.97
2023-03-19T23:05:01.310Z,5.07
2023-03-19T23:08:25.232Z,4.87
2023-03-19T23:11:39.300Z,5.03
2023-03-19T23:14:53.212Z,4.67
2023-03-19T23:18:09.329Z,4.93
2023-03-19T23:21:34.340Z,5.35
2023-03-19T23:24:34.281Z,4.60
2023-03-19T23:28:01.357Z,4.60
2023-03-19T23:31:13.505Z,4.70
2023-03-19T23:34:49.676Z,4.97
2023-03-19T23:37:37.407Z,4.40
2023-03-19T23:41:01.410Z,4.57
2023-03-19T23:44:15.517Z,4.80
2023-03-19T23:47:46.373Z,4.57
2023-03-19T23:50:59.409Z,5.10
2023-03-19T23:54:12.472Z,4.03
2023-03-19T23:57:24.515Z,4.77
